Flight Track Log - Related Links

Times and Time Zones

All times are in EST time to prevent confusion due to time zone crossing. See the GTI4241 flight status page for this flight to view local times or setup timezone preferences in your user account.

Time Position Orientation Groundspeed Altitude Reporting Facility
EST Latitude Longitude Course Direction KTS MPH feet Rate Location/Type
Sun 10:57:00 AM 55.3211 -16.3738 293° West  Level FlightAware Approximate
Sun 10:58:00 AM 55.3613 -16.5705 290° West  Level FlightAware Approximate
Sun 10:59:00 AM 55.4012 -16.7676 290° West  Level FlightAware Approximate
Sun 11:00:00 AM 55.4407 -16.9650 290° West  Level FlightAware Approximate
Sun 11:01:00 AM 55.4800 -17.1629 289° West  Level FlightAware Approximate
Sun 11:02:00 AM 55.5189 -17.3611 289° West  Level FlightAware Approximate
Sun 11:03:00 AM 55.5575 -17.5597 289° West  Level FlightAware Approximate
Sun 11:04:00 AM 55.5958 -17.7588 289° West  Level FlightAware Approximate
Sun 11:05:00 AM 55.6338 -17.9582 289° West  Level FlightAware Approximate
Sun 11:06:00 AM 55.6714 -18.1579 289° West  Level FlightAware Approximate
Sun 11:07:00 AM 55.7087 -18.3581 288° West  Level FlightAware Approximate
Sun 11:08:00 AM 55.7457 -18.5587 288° West  Level FlightAware Approximate
Sun 11:09:00 AM 55.7824 -18.7596 288° West  Level FlightAware Approximate
Sun 11:10:00 AM 55.8187 -18.9609 288° West  Level FlightAware Approximate
Sun 11:11:00 AM 55.8547 -19.1626 288° West  Level FlightAware Approximate
Sun 11:12:00 AM 55.8904 -19.3647 288° West  Level FlightAware Approximate
Sun 11:13:00 AM 55.9257 -19.5671 287° West  Level FlightAware Approximate
Sun 11:14:00 AM 55.9608 -19.7699 287° West  Level FlightAware Approximate
Sun 11:14:15 AM 56.0000 -20.0000 284° West 438 504 34,000  Level ETMS Enhanced Traffic Management System
Sun 11:15:00 AM 55.9954 -19.9730 287° West  Level FlightAware Approximate
Sun 11:16:00 AM 56.0255 -20.1787 284° West  Level FlightAware Approximate
Sun 11:17:00 AM 56.0546 -20.3850 284° West  Level FlightAware Approximate
Sun 11:18:00 AM 56.0833 -20.5915 284° West  Level FlightAware Approximate
Sun 11:19:00 AM 56.1117 -20.7984 284° West  Level FlightAware Approximate
Sun 11:20:00 AM 56.1755 -21.2718 283° West 438 504 34,000  Level FlightAware Transoceanic
Sun 11:21:00 AM 56.2034 -21.4849 283° West 438 504 34,000  Level FlightAware Transoceanic
Sun 11:22:00 AM 56.2310 -21.6983 283° West 438 504 34,000  Level FlightAware Transoceanic
Sun 11:23:00 AM 56.2583 -21.9120 283° West 438 504 34,000  Level FlightAware Transoceanic
Sun 11:24:00 AM 56.2851 -22.1260 283° West 438 504 34,000  Level FlightAware Transoceanic
Sun 11:25:00 AM 56.3116 -22.3403 282° West 438 504 34,000  Level FlightAware Transoceanic
Sun 11:26:00 AM 56.3378 -22.5549 282° West 438 504 34,000  Level FlightAware Transoceanic
Sun 11:27:00 AM 56.3635 -22.7698 282° West 438 504 34,000  Level FlightAware Transoceanic
Sun 11:28:00 AM 56.3889 -22.9849 282° West 438 504 34,000  Level FlightAware Transoceanic
Sun 11:29:00 AM 56.4139 -23.2004 282° West 438 504 34,000  Level FlightAware Transoceanic
Sun 11:30:00 AM 56.4385 -23.4161 282° West 438 504 34,000  Level FlightAware Transoceanic
Sun 11:31:00 AM 56.4628 -23.6322 281° West 438 504 34,000  Level FlightAware Transoceanic
Sun 11:32:00 AM 56.4867 -23.8485 281° West 438 504 34,000  Level FlightAware Transoceanic
Sun 11:33:00 AM 56.5102 -24.0650 281° West 438 504 34,000  Level FlightAware Transoceanic
Sun 11:34:00 AM 56.5333 -24.2819 281° West 438 504 34,000  Level FlightAware Transoceanic
Sun 11:35:00 AM 56.5561 -24.4989 281° West 438 504 34,000  Level FlightAware Transoceanic
Sun 11:36:00 AM 56.5784 -24.7163 280° West 438 504 34,000  Level FlightAware Transoceanic
Sun 11:37:00 AM 56.6004 -24.9339 280° West 438 504 34,000  Level FlightAware Transoceanic
Sun 11:38:00 AM 56.6221 -25.1518 280° West 438 504 34,000  Level FlightAware Transoceanic
Sun 11:39:00 AM 56.6433 -25.3699 280° West 438 504 34,000  Level FlightAware Transoceanic
Sun 11:40:00 AM 56.6642 -25.5882 280° West 438 504 34,000  Level FlightAware Transoceanic
Sun 11:41:00 AM 56.6846 -25.8068 280° West 438 504 34,000  Level FlightAware Transoceanic
Sun 11:42:00 AM 56.7047 -26.0256 279° West 438 504 34,000  Level FlightAware Transoceanic
Sun 11:43:00 AM 56.7244 -26.2447 279° West 438 504 34,000  Level FlightAware Transoceanic
Sun 11:44:00 AM 56.7437 -26.4640 279° West 438 504 34,000  Level FlightAware Transoceanic
Sun 11:45:00 AM 56.7627 -26.6835 279° West 438 504 34,000  Level FlightAware Transoceanic
Sun 11:46:00 AM 56.7812 -26.9032 279° West 438 504 34,000  Level FlightAware Transoceanic
Sun 11:47:00 AM 56.7994 -27.1231 278° West 438 504 34,000  Level FlightAware Transoceanic
Sun 11:48:00 AM 56.8171 -27.3433 278° West 438 504 34,000  Level FlightAware Transoceanic
Sun 11:49:00 AM 56.8345 -27.5637 278° West 438 504 34,000  Level FlightAware Transoceanic
Sun 11:50:00 AM 56.8515 -27.7842 278° West 438 504 34,000  Level FlightAware Transoceanic
Sun 11:51:00 AM 56.8681 -28.0050 278° West 438 504 34,000  Level FlightAware Transoceanic
Sun 11:52:00 AM 56.8843 -28.2259 278° West 438 504 34,000  Level FlightAware Transoceanic
Sun 11:53:00 AM 56.9002 -28.4471 277° West 438 504 34,000  Level FlightAware Transoceanic
Sun 11:54:00 AM 56.9156 -28.6684 277° West 438 504 34,000  Level FlightAware Transoceanic
Sun 11:55:00 AM 56.9307 -28.8899 277° West 438 504 34,000  Level FlightAware Transoceanic
Sun 11:56:00 AM 56.9453 -29.1116 277° West 438 504 34,000  Level FlightAware Transoceanic
Sun 11:57:00 AM 56.9596 -29.3334 277° West 438 504 34,000  Level FlightAware Transoceanic
Sun 11:58:00 AM 56.9734 -29.5555 276° West 438 504 34,000  Level FlightAware Transoceanic
Sun 11:59:00 AM 56.9869 -29.7777 276° West 438 504 34,000 Level FlightAware Transoceanic
Sun 12:00:00 PM 56.9997 -29.9946 276° West  Level FlightAware Approximate
Sun 12:01:00 PM 57.0122 -30.2116 276° West  Level FlightAware Approximate
Sun 12:02:00 PM 56.9879 -30.2060 264° West  Level FlightAware Approximate
Sun 12:03:00 PM 56.9748 -30.4228 264° West  Level FlightAware Approximate
Sun 12:04:00 PM 56.9613 -30.6394 264° West  Level FlightAware Approximate
Sun 12:05:00 PM 56.9474 -30.8559 263° West  Level FlightAware Approximate
Sun 12:06:00 PM 56.9332 -31.0721 263° West  Level FlightAware Approximate
Sun 12:07:00 PM 56.9186 -31.2883 263° West  Level FlightAware Approximate
Sun 12:08:00 PM 56.9036 -31.5042 263° West  Level FlightAware Approximate
Sun 12:09:00 PM 56.8883 -31.7200 263° West  Level FlightAware Approximate
Sun 12:10:00 PM 56.8725 -31.9356 262° West  Level FlightAware Approximate
Sun 12:11:00 PM 56.8564 -32.1510 262° West  Level FlightAware Approximate
Sun 12:12:00 PM 56.8400 -32.3662 262° West  Level FlightAware Approximate
Sun 12:13:00 PM 56.8232 -32.5812 262° West  Level FlightAware Approximate
Sun 12:14:00 PM 56.8060 -32.7961 262° West  Level FlightAware Approximate
Sun 12:15:00 PM 56.7884 -33.0107 262° West  Level FlightAware Approximate
Sun 12:16:00 PM 56.7704 -33.2251 261° West  Level FlightAware Approximate
Sun 12:17:00 PM 56.7521 -33.4394 261° West  Level FlightAware Approximate
Sun 12:18:00 PM 56.7335 -33.6534 261° West  Level FlightAware Approximate
Sun 12:19:00 PM 56.7144 -33.8672 261° West  Level FlightAware Approximate
Sun 12:20:00 PM 56.6950 -34.0808 261° West  Level FlightAware Approximate
Sun 12:21:00 PM 56.6752 -34.2941 261° West  Level FlightAware Approximate
Sun 12:22:00 PM 56.6551 -34.5073 260° West  Level FlightAware Approximate
Sun 12:23:00 PM 56.6346 -34.7202 260° West  Level FlightAware Approximate
Sun 12:24:00 PM 56.6137 -34.9328 260° West  Level FlightAware Approximate
Sun 12:25:00 PM 56.5925 -35.1453 260° West  Level FlightAware Approximate
Sun 12:26:00 PM 56.5709 -35.3574 260° West  Level FlightAware Approximate
Sun 12:27:00 PM 56.5490 -35.5694 259° West  Level FlightAware Approximate
Sun 12:28:00 PM 56.5266 -35.7811 259° West  Level FlightAware Approximate
Sun 12:29:00 PM 56.5040 -35.9925 259° West  Level FlightAware Approximate
Sun 12:30:00 PM 56.4809 -36.2038 259° West  Level FlightAware Approximate
Sun 12:31:00 PM 56.4576 -36.4147 259° West  Level FlightAware Approximate
Sun 12:32:00 PM 56.4338 -36.6254 259° West  Level FlightAware Approximate
Sun 12:33:00 PM 56.4097 -36.8358 258° West  Level FlightAware Approximate
Sun 12:34:00 PM 56.3853 -37.0459 258° West  Level FlightAware Approximate
Sun 12:35:00 PM 56.3605 -37.2558 258° West  Level FlightAware Approximate
Sun 12:36:00 PM 56.3353 -37.4654 258° West  Level FlightAware Approximate
Sun 12:37:00 PM 56.3098 -37.6747 258° West  Level FlightAware Approximate
Sun 12:38:00 PM 56.2839 -37.8838 258° West  Level FlightAware Approximate
Sun 12:39:00 PM 56.2577 -38.0925 257° West  Level FlightAware Approximate
Sun 12:40:00 PM 56.2311 -38.3010 257° West  Level FlightAware Approximate
Sun 12:41:00 PM 56.2042 -38.5091 257° West  Level FlightAware Approximate
Sun 12:42:00 PM 56.1769 -38.7170 257° West  Level FlightAware Approximate
Sun 12:43:00 PM 56.1493 -38.9246 257° West  Level FlightAware Approximate
Sun 12:44:00 PM 56.1213 -39.1319 256° West  Level FlightAware Approximate
Sun 12:45:00 PM 56.0930 -39.3389 256° West  Level FlightAware Approximate
Sun 12:46:00 PM 56.0644 -39.5455 256° West  Level FlightAware Approximate
Sun 12:47:00 PM 56.0354 -39.7519 256° West  Level FlightAware Approximate
Sun 12:48:00 PM 56.0060 -39.9580 256° West  Level FlightAware Approximate
Sun 12:49:00 PM 55.9753 -40.1632 255° West  Level FlightAware Approximate
Sun 12:50:00 PM 55.9439 -40.3680 255° West  Level FlightAware Approximate
Sun 12:51:00 PM 55.9123 -40.5724 255° West  Level FlightAware Approximate
Sun 12:52:00 PM 55.8802 -40.7766 254° West  Level FlightAware Approximate
Sun 12:53:00 PM 55.8479 -40.9803 254° West  Level FlightAware Approximate
Sun 12:54:00 PM 55.8152 -41.1838 254° West  Level FlightAware Approximate
Sun 12:55:00 PM 55.7821 -41.3868 254° West  Level FlightAware Approximate
Sun 12:56:00 PM 55.7487 -41.5896 254° West  Level FlightAware Approximate
Sun 12:57:00 PM 55.7150 -41.7920 254° West  Level FlightAware Approximate
Sun 12:58:00 PM 55.6810 -41.9940 253° West  Level FlightAware Approximate
Sun 12:59:00 PM 55.6466 -42.1957 253° West  Level FlightAware Approximate
Sun 01:00:00 PM 55.6119 -42.3970 253° West  Level FlightAware Approximate
Sun 01:01:00 PM 55.5769 -42.5980 253° West  Level FlightAware Approximate
Sun 01:02:00 PM 55.5415 -42.7986 253° West  Level FlightAware Approximate
Sun 01:03:00 PM 55.5059 -42.9989 253° West  Level FlightAware Approximate
Sun 01:04:00 PM 55.4698 -43.1988 252° West  Level FlightAware Approximate
Sun 01:05:00 PM 55.4335 -43.3983 252° West  Level FlightAware Approximate
Sun 01:06:00 PM 55.3968 -43.5975 252° West  Level FlightAware Approximate
Sun 01:07:00 PM 55.3599 -43.7963 252° West  Level FlightAware Approximate
Sun 01:08:00 PM 55.3226 -43.9947 252° West  Level FlightAware Approximate
Sun 01:09:00 PM 55.2849 -44.1927 252° West  Level FlightAware Approximate
Sun 01:10:00 PM 55.2470 -44.3904 251° West  Level FlightAware Approximate
Sun 01:11:00 PM 55.2087 -44.5877 251° West  Level FlightAware Approximate
Sun 01:12:00 PM 55.1701 -44.7846 251° West  Level FlightAware Approximate
Sun 01:13:00 PM 55.1312 -44.9811 251° West  Level FlightAware Approximate
Sun 01:14:00 PM 55.0920 -45.1772 251° West  Level FlightAware Approximate
Sun 01:15:00 PM 55.0525 -45.3730 251° West  Level FlightAware Approximate
Sun 01:16:00 PM 55.0126 -45.5683 250° West  Level FlightAware Approximate
Sun 01:17:00 PM 54.9725 -45.7633 250° West  Level FlightAware Approximate
Sun 01:18:00 PM 54.9320 -45.9579 250° West  Level FlightAware Approximate
Sun 01:19:00 PM 54.8913 -46.1521 250° West  Level FlightAware Approximate
Sun 01:20:00 PM 54.8502 -46.3459 250° West  Level FlightAware Approximate
Sun 01:21:00 PM 54.8088 -46.5393 250° West  Level FlightAware Approximate
Sun 01:22:00 PM 54.7671 -46.7323 250° West  Level FlightAware Approximate
Sun 01:23:00 PM 54.7251 -46.9249 249° West  Level FlightAware Approximate
Sun 01:24:00 PM 54.6828 -47.1171 249° West  Level FlightAware Approximate
Sun 01:25:00 PM 54.6401 -47.3089 249° West  Level FlightAware Approximate
Sun 01:26:00 PM 54.5972 -47.5003 249° West  Level FlightAware Approximate
Sun 01:27:00 PM 54.5540 -47.6913 249° West  Level FlightAware Approximate
Sun 01:28:00 PM 54.5105 -47.8819 249° West  Level FlightAware Approximate
Sun 01:29:00 PM 54.4667 -48.0720 248° West  Level FlightAware Approximate
Sun 01:30:00 PM 54.4226 -48.2618 248° West  Level FlightAware Approximate
Sun 01:31:00 PM 54.3782 -48.4512 248° West  Level FlightAware Approximate
Sun 01:32:00 PM 54.3334 -48.6401 248° West  Level FlightAware Approximate
Sun 01:33:00 PM 54.2884 -48.8287 248° West  Level FlightAware Approximate
Sun 01:34:00 PM 54.2431 -49.0168 248° West  Level FlightAware Approximate
Sun 01:35:00 PM 54.1976 -49.2045 248° West  Level FlightAware Approximate
Sun 01:36:00 PM 54.1517 -49.3918 247° West  Level FlightAware Approximate
Sun 01:37:00 PM 54.1055 -49.5787 247° West  Level FlightAware Approximate
Sun 01:38:00 PM 54.0591 -49.7652 247° West  Level FlightAware Approximate
Sun 01:39:00 PM 54.0123 -49.9512 247° West  Level FlightAware Approximate
Sun 01:40:00 PM 53.9681 -50.1389 249° West  Level FlightAware Approximate
Sun 01:41:00 PM 53.9246 -50.3268 249° West  Level FlightAware Approximate
Sun 01:42:00 PM 53.8809 -50.5143 248° West  Level FlightAware Approximate
Sun 01:43:00 PM 53.8368 -50.7015 248° West  Level FlightAware Approximate
Sun 01:44:00 PM 53.7924 -50.8882 248° West  Level FlightAware Approximate
Sun 01:45:00 PM 53.7478 -51.0746 248° West  Level FlightAware Approximate
Sun 01:46:00 PM 53.7029 -51.2605 248° West  Level FlightAware Approximate
Sun 01:47:00 PM 53.6577 -51.4461 248° West  Level FlightAware Approximate
Sun 01:48:00 PM 53.6121 -51.6312 248° West  Level FlightAware Approximate
Sun 01:49:00 PM 53.5664 -51.8160 247° West  Level FlightAware Approximate
Sun 01:50:00 PM 53.5203 -52.0004 247° West  Level FlightAware Approximate
Sun 01:51:00 PM 53.4739 -52.1843 247° West  Level FlightAware Approximate
Sun 01:52:00 PM 53.4273 -52.3679 247° West  Level FlightAware Approximate
Sun 01:53:00 PM 53.3804 -52.5510 247° West  Level FlightAware Approximate
Sun 01:54:00 PM 53.3332 -52.7337 247° West  Level FlightAware Approximate
Sun 01:55:00 PM 53.2857 -52.9161 247° West  Level FlightAware Approximate
Sun 01:56:00 PM 53.2379 -53.0980 246° West  Level FlightAware Approximate
Sun 01:56:15 PM 53.1667 -53.6000 279° West 450 518 35,000  Level Gander Center
Sun 01:57:00 PM 53.1899 -53.2795 246° West  Level FlightAware Approximate
Sun 01:57:15 PM 53.1333 -53.8000 255° West 450 518 35,000  Level Gander Center
Sun 01:58:00 PM 53.1416 -53.4607 246° West  Level FlightAware Approximate
Sun 01:58:15 PM 53.0833 -54.0167 249° West 450 518 35,000  Level Gander Center
Sun 01:59:00 PM 53.0930 -53.6414 246° West  Level FlightAware Approximate
Sun 01:59:15 PM 53.0167 -54.1833 236° Southwest 450 518 35,000  Level Gander Center
Sun 02:00:00 PM 53.0441 -53.8217 246° West  Level FlightAware Approximate
Sun 02:00:15 PM 52.9667 -54.3667 246° West 450 518 35,000  Level Gander Center
Sun 02:01:00 PM 53.0621 -54.0169 279° West  Level FlightAware Approximate
Sun 02:01:15 PM 52.9000 -54.5333 236° Southwest 450 518 35,000  Level Gander Center
Sun 02:02:15 PM 52.8333 -54.7500 243° Southwest 450 518 35,000  Level Gander Center
Sun 02:03:15 PM 52.7833 -54.9167 244° Southwest 450 518 35,000  Level Gander Center
Sun 02:04:15 PM 52.7000 -55.1167 236° Southwest 450 518 35,000  Level Gander Center
Sun 02:05:15 PM 52.6500 -55.3000 246° West 450 518 35,000  Level Gander Center
Sun 02:06:15 PM 52.5833 -55.5000 241° Southwest 450 518 35,000  Level Gander Center
Sun 02:07:15 PM 52.5333 -55.6667 244° Southwest 450 518 35,000  Level Gander Center
Sun 02:08:15 PM 52.4667 -55.8500 239° Southwest 450 518 35,000  Level Gander Center
Sun 02:09:15 PM 52.4000 -56.0167 237° Southwest 460 529 35,000  Level Gander Center
Sun 02:10:15 PM 52.3333 -56.1833 237° Southwest 450 518 35,000  Level Gander Center
Sun 02:11:15 PM 52.2667 -56.3833 241° Southwest 450 518 35,000  Level Gander Center
Sun 02:12:15 PM 52.2000 -56.5333 234° Southwest 440 506 35,000  Level Gander Center
Sun 02:13:15 PM 52.1333 -56.7000 237° Southwest 450 518 35,000  Level Gander Center
Sun 02:14:15 PM 52.0833 -56.9000 248° West 450 518 35,000  Level Gander Center
Sun 02:15:15 PM 52.0167 -57.0667 237° Southwest 440 506 35,000  Level Gander Center
Sun 02:16:15 PM 51.9500 -57.2333 237° Southwest 440 506 35,000  Level Gander Center
Sun 02:17:15 PM 51.9000 -57.4000 244° Southwest 440 506 35,000  Level Gander Center
Sun 02:18:15 PM 51.8167 -57.5833 234° Southwest 440 506 35,000  Level Gander Center
Sun 02:19:15 PM 51.7500 -57.7500 237° Southwest 440 506 35,000  Level Gander Center
Sun 02:20:15 PM 51.7000 -57.9167 244° Southwest 440 506 35,000  Level Gander Center
Sun 02:21:15 PM 51.6333 -58.0833 237° Southwest 440 506 35,000  Level Gander Center
Sun 02:22:15 PM 51.5667 -58.2333 234° Southwest 440 506 35,000  Level Gander Center
Sun 02:23:15 PM 51.5000 -58.4000 237° Southwest 440 506 35,000  Level Gander Center
Sun 02:24:15 PM 51.4500 -58.5667 244° Southwest 440 506 35,000  Level Gander Center
Sun 02:25:15 PM 51.3667 -58.7333 231° Southwest 440 506 35,000  Level Gander Center
Sun 02:26:15 PM 51.3000 -58.9000 237° Southwest 440 506 35,000  Level Gander Center
Sun 02:27:15 PM 51.2333 -59.0667 237° Southwest 440 506 35,000  Level Gander Center
Sun 02:28:15 PM 51.1500 -59.2333 231° Southwest 430 495 35,000 450 Level Gander Center
Sun 02:29:15 PM 51.0667 -59.3667 225° Southwest 440 506 35,900 850 Climbing Gander Center
Sun 02:30:15 PM 51.0000 -59.5000 232° Southwest 440 506 36,700 750 Climbing Gander Center
Sun 02:31:15 PM 50.9167 -59.6667 232° Southwest 450 518 37,400 650 Climbing Gander Center
Sun 02:32:15 PM 50.8333 -59.8000 225° Southwest 440 506 38,000 300 Climbing Gander Center
Sun 02:33:15 PM 50.7500 -59.9667 232° Southwest 440 506 38,000  Level Gander Center
Sun 02:34:15 PM 50.6667 -60.1000 225° Southwest 430 495 38,000  Level Gander Center
Sun 02:35:15 PM 50.6000 -60.2333 232° Southwest 440 506 38,000  Level Gander Center
Sun 02:36:15 PM 50.5000 -60.3833 224° Southwest 440 506 38,000  Level Gander Center
Sun 02:37:15 PM 50.4333 -60.5167 232° Southwest 430 495 38,000  Level Gander Center
Sun 02:38:15 PM 50.3500 -60.6833 232° Southwest 440 506 38,000 -50 Level Gander Center
Sun 02:39:15 PM 50.2667 -60.8167 226° Southwest 450 518 37,900 -350 Descending Gander Center
Sun 02:40:15 PM 50.1667 -60.9667 224° Southwest 450 518 37,300 -550 Descending Gander Center
Sun 02:41:15 PM 50.1000 -61.1000 232° Southwest 440 506 36,800 -450 Descending Gander Center
Sun 02:42:15 PM 50.0167 -61.2333 226° Southwest 440 506 36,400 -400 Descending Gander Center
Sun 02:43:15 PM 49.9333 -61.3833 229° Southwest 420 483 36,000 -200 Descending Gander Center
Sun 02:44:15 PM 49.8500 -61.5167 226° Southwest 430 495 36,000  Level Gander Center
Sun 02:45:15 PM 49.7667 -61.6667 229° Southwest 430 495 36,000  Level Gander Center
Sun 02:46:15 PM 49.7000 -61.8000 232° Southwest 430 495 36,000  Level Gander Center
Sun 02:47:15 PM 49.6167 -61.9333 226° Southwest 430 495 36,000  Level Gander Center
Sun 02:48:15 PM 49.5333 -62.0500 222° Southwest 430 495 36,000  Level Gander Center
Sun 02:49:15 PM 49.4500 -62.1833 226° Southwest 430 495 36,000  Level Gander Center
Sun 02:50:15 PM 49.3667 -62.3333 230° Southwest 430 495 36,000  Level Gander Center
Sun 02:51:15 PM 49.3000 -62.4667 233° Southwest 430 495 36,000  Level Gander Center
Sun 02:52:15 PM 49.2167 -62.6167 230° Southwest 430 495 36,000  Level Gander Center
Sun 02:53:15 PM 49.1167 -62.7333 217° Southwest 430 495 36,000  Level Gander Center
Sun 02:54:15 PM 49.0333 -62.8667 226° Southwest 430 495 36,000  Level Gander Center
Sun 02:55:15 PM 48.9500 -62.9833 223° Southwest 430 495 36,000  Level Gander Center
Sun 02:56:15 PM 48.8667 -63.1333 230° Southwest 430 495 36,000  Level Gander Center
Sun 02:57:15 PM 48.8000 -63.2667 233° Southwest 430 495 36,000  Level Gander Center
Sun 02:58:15 PM 48.7167 -63.3833 223° Southwest 440 506 36,000  Level Gander Center
Sun 02:59:15 PM 48.6333 -63.5333 230° Southwest 430 495 36,000  Level Gander Center
Sun 03:00:15 PM 48.5333 -63.6500 218° Southwest 430 495 36,000  Level Gander Center
Sun 03:01:15 PM 48.4500 -63.7833 227° Southwest 420 483 36,000  Level Gander Center
Sun 03:02:15 PM 48.3667 -63.9000 223° Southwest 430 495 36,000  Level Gander Center
Sun 03:03:15 PM 48.2833 -64.0500 230° Southwest 420 483 36,000  Level Gander Center
Sun 03:04:15 PM 48.2167 -64.1667 229° Southwest 430 495 36,000  Level Gander Center
Sun 03:05:15 PM 48.1167 -64.3167 225° Southwest 430 495 36,000  Level Gander Center
Sun 03:06:15 PM 48.0333 -64.4333 223° Southwest 430 495 36,000  Level Gander Center
Sun 03:07:15 PM 47.9667 -64.5500 230° Southwest 420 483 36,000  Level Gander Center
Sun 03:08:15 PM 47.8833 -64.6667 223° Southwest 420 483 36,000  Level Gander Center
Sun 03:09:38 PM 47.7667 -64.8500 227° Southwest 420 483 36,000  Level Moncton Center
Sun 03:10:38 PM 47.6833 -64.9667 223° Southwest 420 483 36,000  Level Moncton Center
Sun 03:11:38 PM 47.6000 -65.1000 227° Southwest 430 495 36,000  Level Moncton Center
Sun 03:12:38 PM 47.5167 -65.2167 223° Southwest 430 495 36,000  Level Moncton Center
Sun 03:13:38 PM 47.4333 -65.3333 223° Southwest 430 495 36,000  Level Moncton Center
Sun 03:14:38 PM 47.3500 -65.4667 227° Southwest 430 495 36,000  Level Moncton Center
Sun 03:15:38 PM 47.2500 -65.5833 218° Southwest 430 495 36,000  Level Moncton Center
Sun 03:16:38 PM 47.1667 -65.7000 224° Southwest 430 495 36,000  Level Moncton Center
Sun 03:17:38 PM 47.0667 -65.8500 226° Southwest 430 495 36,000  Level Moncton Center
Sun 03:18:38 PM 47.0000 -65.9500 226° Southwest 430 495 36,000  Level Moncton Center
Sun 03:19:38 PM 46.9167 -66.0667 224° Southwest 420 483 36,000  Level Moncton Center
Sun 03:20:38 PM 46.8333 -66.2000 228° Southwest 430 495 36,000  Level Moncton Center
Sun 03:21:38 PM 46.7500 -66.3000 219° Southwest 420 483 36,000  Level Moncton Center
Sun 03:22:38 PM 46.6667 -66.4500 231° Southwest 420 483 36,000  Level Moncton Center
Sun 03:23:38 PM 46.5833 -66.5333 215° Southwest 420 483 36,000  Level Moncton Center
Sun 03:24:38 PM 46.4833 -66.6833 226° Southwest 420 483 36,000  Level Moncton Center
Sun 03:25:38 PM 46.4000 -66.7833 220° Southwest 420 483 36,000  Level Moncton Center
Sun 03:26:38 PM 46.3167 -66.9167 228° Southwest 420 483 36,000  Level Moncton Center
Sun 03:32:20 PM 45.8549 -67.5527 228° Southwest 410 472 36,000  Level FlightAware ADS-B
Sun 03:32:55 PM 45.8064 -67.6173 223° Southwest 410 472 36,000  Level FlightAware ADS-B
Sun 03:33:28 PM 45.7597 -67.6782 222° Southwest 410 472 36,000  Level FlightAware ADS-B
Sun 03:35:18 PM 45.6088 -67.8797 223° Southwest 404 465 36,000  Level FlightAware ADS-B
Sun 03:35:48 PM 45.5718 -67.9283 223° Southwest 403 464 36,000  Level FlightAware ADS-B
Sun 03:36:18 PM 45.5718 -67.9283 223° Southwest 401 461 36,000  Level FlightAware ADS-B
Sun 03:37:05 PM 45.4659 -68.0661 222° Southwest 401 461 36,000  Level FlightAware ADS-B
Sun 03:37:36 PM 45.4202 -68.1268 223° Southwest 402 463 36,000  Level FlightAware ADS-B
Sun 03:38:37 PM 45.3364 -68.2361 223° Southwest 404 465 36,000  Level FlightAware ADS-B
Sun 03:39:10 PM 45.2910 -68.2955 223° Southwest 404 465 36,000  Level FlightAware ADS-B (YSBK / BWU)
Sun 03:39:41 PM 45.2484 -68.3510 223° Southwest 403 464 36,000  Level FlightAware ADS-B
Sun 03:40:18 PM 45.1982 -68.4150 222° Southwest 402 463 36,000  Level FlightAware ADS-B
Sun 03:40:51 PM 45.1526 -68.4753 223° Southwest 401 461 36,000  Level FlightAware ADS-B
Sun 03:41:24 PM 45.1106 -68.5282 222° Southwest 399 459 36,000  Level FlightAware ADS-B
Sun 03:42:01 PM 45.0565 -68.5984 223° Southwest 399 459 36,000  Level FlightAware ADS-B
Sun 03:42:40 PM 45.0071 -68.6613 222° Southwest 399 459 36,000  Level FlightAware ADS-B
Sun 03:43:19 PM 44.9515 -68.7333 222° Southwest 400 460 36,000  Level FlightAware ADS-B
Sun 03:43:54 PM 44.9033 -68.7944 222° Southwest 399 459 36,000  Level FlightAware ADS-B
Sun 03:44:34 PM 44.8491 -68.8637 222° Southwest 396 456 36,000  Level FlightAware ADS-B
Sun 03:45:04 PM 44.8069 -68.9174 222° Southwest 396 456 36,000  Level FlightAware ADS-B
Sun 03:45:34 PM 44.7663 -68.9692 222° Southwest 397 457 36,000  Level FlightAware ADS-B
Sun 03:46:36 PM 44.6824 -69.0746 222° Southwest 400 460 36,000  Level FlightAware ADS-B
Sun 03:47:16 PM 44.6270 -69.1442 222° Southwest 404 465 36,000  Level FlightAware ADS-B
Sun 03:48:51 PM 44.4944 -69.3102 222° Southwest 404 465 36,000  Level FlightAware ADS-B
Sun 03:50:34 PM 44.4278 -69.3937 222° Southwest 404 465 36,000  Level FlightAware ADS-B (YSBK / BWU)
Sun 03:51:24 PM 44.2863 -69.5688 222° Southwest 405 466 36,000  Level FlightAware ADS-B
Sun 03:51:58 PM 44.2333 -69.6349 222° Southwest 406 467 36,000  Level FlightAware ADS-B
Sun 03:52:45 PM 44.2333 -69.6349 222° Southwest 407 468 36,000  Level FlightAware ADS-B
Sun 03:54:02 PM 44.0609 -69.8462 221° Southwest 407 468 36,000  Level FlightAware ADS-B
Sun 03:54:39 PM 44.0390 -69.8737 222° Southwest 407 468 36,000  Level FlightAware ADS-B (EPKK / KRK)
Sun 03:55:34 PM 43.9926 -69.9290 221° Southwest 406 467 36,000  Level FlightAware ADS-B (EPKK / KRK)
Sun 03:56:55 PM 43.8138 -70.1469 221° Southwest 407 468 36,000  Level FlightAware ADS-B (EPKK / KRK)
Sun 03:58:12 PM 43.9001 -70.0425 41° Northeast 407 468 36,000  Level FlightAware ADS-B
Sun 04:00:58 PM 43.4709 -70.5583 221° Southwest 410 472 36,000  Level FlightAware ADS-B (EPKK / KRK)
Sun 04:02:19 PM 43.3277 -70.6621 208° Southwest 435 501 36,000  Level FlightAware ADS-B (EPKK / KRK)
Sun 04:03:54 PM 43.1510 -70.7474 199° South 427 491 36,000  Level FlightAware ADS-B (EPKK / KRK)
Sun 04:04:25 PM 43.0904 -70.7776 200° South 424 488 36,000  Level FlightAware ADS-B (EPKK / KRK)
Sun 04:04:55 PM 43.0348 -70.8046 200° South 422 486 36,000  Level FlightAware ADS-B (EPKK / KRK)
Sun 04:05:25 PM 42.9821 -70.8307 200° South 422 486 36,000  Level FlightAware ADS-B (EPKK / KRK)
Sun 04:05:56 PM 42.9226 -70.8602 200° South 418 481 36,000  Level FlightAware ADS-B (EPKK / KRK)
Sun 04:06:26 PM 42.8735 -70.8895 204° Southwest 415 478 36,000  Level FlightAware ADS-B (EPKK / KRK)
Sun 04:06:57 PM 42.8172 -70.9265 206° Southwest 412 474 36,000  Level FlightAware ADS-B (EPKK / KRK)
Sun 04:07:33 PM 42.7587 -70.9656 206° Southwest 411 473 36,000  Level FlightAware ADS-B (SBBR / BSB)
Sun 04:08:03 PM 42.7062 -71.0014 207° Southwest 411 473 36,000  Level FlightAware ADS-B (EPKK / KRK)
Sun 04:08:33 PM 42.6531 -71.0369 206° Southwest 412 474 36,000  Level FlightAware ADS-B (EPKK / KRK)
Sun 04:09:24 PM 42.5658 -71.0948 206° Southwest 412 474 36,000  Level FlightAware ADS-B (EPKK / KRK)
Sun 04:09:58 PM 42.5085 -71.1319 206° Southwest 412 474 36,000  Level FlightAware ADS-B (EPKK / KRK)
Sun 04:10:28 PM 42.4602 -71.1632 206° Southwest 412 474 36,000  Level FlightAware ADS-B (EPKK / KRK)
Sun 04:11:04 PM 42.3940 -71.2067 206° Southwest 411 473 36,000 -433 Level FlightAware ADS-B (EPKK / KRK)
Sun 04:12:05 PM 42.2902 -71.2746 206° Southwest 410 472 35,300 -796 Descending FlightAware ADS-B (EPKK / KRK)
Sun 04:12:42 PM 42.2390 -71.3078 206° Southwest 408 470 34,700 -756 Descending FlightAware ADS-B (KOWD)
Sun 04:14:20 PM 42.0651 -71.4206 206° Southwest 393 452 33,600 -651 Descending FlightAware ADS-B (KOWD)
Sun 04:14:51 PM 42.0159 -71.4521 205° Southwest 386 444 33,300 -592 Descending FlightAware ADS-B (KOWD)
Sun 04:15:31 PM 41.9505 -71.4942 206° Southwest 380 437 32,900 -1,371 Descending FlightAware ADS-B (KOWD)
Sun 04:16:01 PM 41.9505 -71.4942 206° Southwest 371 427 31,700 -2,361 Descending FlightAware ADS-B (KOWD)
Sun 04:16:32 PM 41.8567 -71.5536 205° Southwest 364 419 30,500 -2,361 Descending FlightAware ADS-B (KOWD)
Sun 04:17:02 PM 41.8295 -71.5709 205° Southwest 356 410 29,300 -3,205 Descending FlightAware ADS-B (KOWD)
Sun 04:17:45 PM 41.7459 -71.6250 206° Southwest 361 415 26,600 -2,971 Descending FlightAware ADS-B (SBBR / BSB)
Sun 04:18:47 PM 41.6496 -71.6874 206° Southwest 369 425 24,100 -852 Descending FlightAware ADS-B (SBBR / BSB)
Sun 04:20:48 PM 41.4647 -71.8038 205° Southwest 364 419 24,000 -38 Descending FlightAware ADS-B (KSNC)
Sun 04:21:27 PM 41.4072 -71.8395 205° Southwest 366 421 24,000  Level FlightAware ADS-B (KSNC)
Sun 04:21:58 PM 41.3727 -71.8619 206° Southwest 368 423 24,000  Level FlightAware ADS-B (SBBR / BSB)
Sun 04:22:33 PM 41.3340 -71.8862 205° Southwest 365 420 24,000 -511 Level FlightAware ADS-B (KSNC)
Sun 04:23:32 PM 41.2301 -71.9847 216° Southwest 339 390 23,200 -1,140 Descending FlightAware ADS-B (KSNC)
Sun 04:24:13 PM 41.1978 -72.0589 240° Southwest 317 365 22,100 -1,852 Descending FlightAware ADS-B (KSNC)
Sun 04:24:53 PM 41.1762 -72.1198 245° Southwest 302 348 20,700 -2,877 Descending FlightAware ADS-B (KSNC)
Sun 04:25:26 PM 41.1536 -72.1835 245° Southwest 317 365 18,600 -3,211 Descending FlightAware ADS-B (KSNC)
Sun 04:26:04 PM 41.1518 -72.1887 245° Southwest 314 361 16,900 -2,692 Descending FlightAware ADS-B (KSNC)
Sun 04:26:44 PM 41.1046 -72.3184 244° Southwest 306 352 15,100 -2,583 Descending FlightAware ADS-B (KSNC)
Sun 04:27:16 PM 41.0881 -72.3636 244° Southwest 300 345 13,800 -2,507 Descending FlightAware ADS-B (KSNC)
Sun 04:27:51 PM 41.0645 -72.4299 245° Southwest 305 351 12,300 -1,440 Descending FlightAware ADS-B (KSNC)
Sun 04:28:31 PM 41.0400 -72.4971 244° Southwest 304 350 12,000 -257 Descending FlightAware ADS-B (KSNC)
Sun 04:29:01 PM 41.0219 -72.5471 244° Southwest 302 348 12,000  Level FlightAware ADS-B (KSNC)
Sun 04:29:33 PM 41.0023 -72.6008 244° Southwest 303 349 12,000  Level FlightAware ADS-B (KSNC)
Sun 04:31:57 PM 40.9226 -72.8055 243° Southwest 252 290 12,000 -485 Level FlightAware ADS-B (KSNC)
Sun 04:33:28 PM 40.8344 -72.8897 216° Southwest 245 282 10,100 -1,279 Descending FlightAware ADS-B (KSNC)
Sun 04:34:13 PM 40.7944 -72.9318 219° Southwest 245 282 9,100 -1,094 Descending FlightAware ADS-B (KSNC)
Sun 04:36:29 PM 40.7097 -73.0938 235° Southwest 236 272 6,800 -1,127 Descending FlightAware ADS-B (KSNC)
Sun 04:37:46 PM 40.7000 -73.2000 235° Southwest 239 275 5,100 -788 Descending New York TRACON
Sun 04:38:46 PM 40.7167 -73.2833 285° West 238 274 5,000 -450 Descending New York TRACON
Sun 04:39:46 PM 40.7167 -73.3667 270° West 233 268 4,200 -450 Descending New York TRACON
Sun 04:40:46 PM 40.7333 -73.4500 285° West 237 273 4,100 -333 Descending New York TRACON
Sun 04:41:52 PM 40.7500 -73.5500 282° West 226 260 3,500 -810 Descending New York TRACON
Sun 04:42:52 PM 40.7667 -73.6167 288° West 202 232 2,400 -789 Descending New York TRACON
Sun 04:43:46 PM 40.7500 -73.6833 252° West 209 241 2,000 -526 Descending New York TRACON
Sun 04:44:46 PM 40.7000 -73.7167 207° Southwest 175 201 1,400 -750 Descending New York TRACON
Sun 04:45:46 PM 40.6667 -73.7333 201° Southwest 155 178 500 -900 Descending New York TRACON
Sun 04:47:00 PM 40.6333 -73.7667 North  Level FlightAware Approximate
Sun 04:54:00 PM 40.6398 -73.7789 North  Level Estimated

Login

Don't have an account? Register now (free) for customized features, flight alerts, and more!